Rechercher aéroport 
image banner adimage banner adimage banner ad
image banner ad

05CL - Pope Valley

Situé à Pope Valley, United States

ICAO - 05CL, IATA -

Données fournies par Airmate  

Information générale

Coordonnées: N38°36'39" W122°23'29"
Élévation : 618 feet MSL.
Variation magnétique : 16° East
Voir autres Aéroports à California

Données opérationnelles

Special qualification required
Heure actuelle UTC:
Heure actuelle locale:
METAR: KSTS 292153Z 18012KT 10SM CLR 28/13 A2989 RMK AO2 SLP115 T02830133
TAF: KSTS 291728Z 2918/3018 VRB05KT P6SM FEW200 FM292100 19008KT P6SM FEW180 FM300500 16005KT P6SM FEW150 FM301000 VRB03KT P6SM SCT008 FM301600 VRB02KT P6SM FEW150
Voir NOTAMs / SUP AIP / TFR affectant cet aéroport [VIEW]
Fréquences de communication: [VIEW]

Pistes:

Identifiant RWYQFULongueur (ft)Largeur (ft)SurfaceLDA (ft)
10370060ASPH
28370060ASPH

Coordonnées de l'aéroport

Adresse: Pope Valley United States

Vue satellite de 05CL